sensor_id;sensor_type;location;lat;lon;timestamp;P1;durP1;ratioP1;P2;durP2;ratioP2
47529;SDS011;33272;51.922;7.730;2022-08-21T00:00:50;7.43;;;4.23;;
47529;SDS011;33272;51.922;7.730;2022-08-21T00:03:17;9.67;;;4.20;;
47529;SDS011;33272;51.922;7.730;2022-08-21T00:05:46;9.47;;;4.80;;
47529;SDS011;33272;51.922;7.730;2022-08-21T00:08:16;8.03;;;4.57;;
47529;SDS011;33272;51.922;7.730;2022-08-21T00:10:46;8.17;;;4.13;;
47529;SDS011;33272;51.922;7.730;2022-08-21T00:13:13;7.17;;;4.30;;
47529;SDS011;33272;51.922;7.730;2022-08-21T00:15:41;7.87;;;4.37;;
47529;SDS011;33272;51.922;7.730;2022-08-21T00:18:09;5.93;;;4.07;;
47529;SDS011;33272;51.922;7.730;2022-08-21T00:20:37;6.40;;;3.60;;
47529;SDS011;33272;51.922;7.730;2022-08-21T00:23:05;6.13;;;4.10;;
47529;SDS011;33272;51.922;7.730;2022-08-21T00:25:33;7.23;;;4.07;;
47529;SDS011;33272;51.922;7.730;2022-08-21T00:28:02;6.47;;;4.23;;
47529;SDS011;33272;51.922;7.730;2022-08-21T00:30:31;8.93;;;4.07;;
47529;SDS011;33272;51.922;7.730;2022-08-21T00:32:59;5.10;;;3.87;;
47529;SDS011;33272;51.922;7.730;2022-08-21T00:35:28;6.10;;;4.20;;
47529;SDS011;33272;51.922;7.730;2022-08-21T00:37:58;6.27;;;4.43;;
47529;SDS011;33272;51.922;7.730;2022-08-21T00:40:26;7.07;;;4.47;;
47529;SDS011;33272;51.922;7.730;2022-08-21T00:42:57;6.63;;;4.07;;
47529;SDS011;33272;51.922;7.730;2022-08-21T00:45:26;6.20;;;4.27;;
47529;SDS011;33272;51.922;7.730;2022-08-21T00:47:53;6.67;;;4.17;;
47529;SDS011;33272;51.922;7.730;2022-08-21T00:50:21;7.33;;;4.23;;
47529;SDS011;33272;51.922;7.730;2022-08-21T00:52:52;4.73;;;3.77;;
47529;SDS011;33272;51.922;7.730;2022-08-21T00:55:19;5.37;;;3.90;;
47529;SDS011;33272;51.922;7.730;2022-08-21T00:57:49;5.43;;;3.83;;
47529;SDS011;33272;51.922;7.730;2022-08-21T01:00:22;5.63;;;3.87;;
47529;SDS011;33272;51.922;7.730;2022-08-21T01:02:54;6.77;;;4.40;;
47529;SDS011;33272;51.922;7.730;2022-08-21T01:05:21;4.33;;;3.77;;
47529;SDS011;33272;51.922;7.730;2022-08-21T01:07:48;9.53;;;4.10;;
47529;SDS011;33272;51.922;7.730;2022-08-21T01:10:16;6.77;;;3.90;;
47529;SDS011;33272;51.922;7.730;2022-08-21T01:12:44;5.93;;;3.93;;
47529;SDS011;33272;51.922;7.730;2022-08-21T01:15:11;6.47;;;4.10;;
47529;SDS011;33272;51.922;7.730;2022-08-21T01:17:42;5.23;;;3.70;;
47529;SDS011;33272;51.922;7.730;2022-08-21T01:20:09;4.77;;;3.57;;
47529;SDS011;33272;51.922;7.730;2022-08-21T01:22:39;6.70;;;3.53;;
47529;SDS011;33272;51.922;7.730;2022-08-21T01:25:07;4.50;;;3.60;;
47529;SDS011;33272;51.922;7.730;2022-08-21T01:27:37;6.37;;;3.53;;
47529;SDS011;33272;51.922;7.730;2022-08-21T01:30:07;7.73;;;3.80;;
47529;SDS011;33272;51.922;7.730;2022-08-21T01:32:39;8.43;;;3.83;;
47529;SDS011;33272;51.922;7.730;2022-08-21T01:35:08;8.37;;;3.80;;
47529;SDS011;33272;51.922;7.730;2022-08-21T01:37:36;4.87;;;3.63;;
47529;SDS011;33272;51.922;7.730;2022-08-21T01:40:05;4.90;;;3.63;;
47529;SDS011;33272;51.922;7.730;2022-08-21T01:42:35;8.03;;;4.07;;
47529;SDS011;33272;51.922;7.730;2022-08-21T01:45:05;9.43;;;3.93;;
47529;SDS011;33272;51.922;7.730;2022-08-21T01:47:35;7.23;;;3.50;;
47529;SDS011;33272;51.922;7.730;2022-08-21T01:50:03;10.97;;;3.93;;
47529;SDS011;33272;51.922;7.730;2022-08-21T01:52:31;4.60;;;3.90;;
47529;SDS011;33272;51.922;7.730;2022-08-21T01:54:58;4.93;;;4.13;;
47529;SDS011;33272;51.922;7.730;2022-08-21T01:57:27;4.53;;;3.53;;
47529;SDS011;33272;51.922;7.730;2022-08-21T01:59:54;6.60;;;4.13;;
47529;SDS011;33272;51.922;7.730;2022-08-21T02:02:21;6.40;;;4.30;;
47529;SDS011;33272;51.922;7.730;2022-08-21T02:04:48;8.03;;;4.33;;
47529;SDS011;33272;51.922;7.730;2022-08-21T02:07:16;7.93;;;4.53;;
47529;SDS011;33272;51.922;7.730;2022-08-21T02:09:43;6.80;;;4.23;;
47529;SDS011;33272;51.922;7.730;2022-08-21T02:12:10;6.23;;;4.03;;
47529;SDS011;33272;51.922;7.730;2022-08-21T02:14:39;7.10;;;3.93;;
47529;SDS011;33272;51.922;7.730;2022-08-21T02:17:06;8.93;;;4.83;;
47529;SDS011;33272;51.922;7.730;2022-08-21T02:19:33;7.90;;;4.57;;
47529;SDS011;33272;51.922;7.730;2022-08-21T02:22:00;7.03;;;4.37;;
47529;SDS011;33272;51.922;7.730;2022-08-21T02:24:27;5.63;;;4.20;;
47529;SDS011;33272;51.922;7.730;2022-08-21T02:26:55;7.77;;;4.30;;
47529;SDS011;33272;51.922;7.730;2022-08-21T02:29:21;5.87;;;4.00;;
47529;SDS011;33272;51.922;7.730;2022-08-21T02:31:50;6.53;;;4.90;;
47529;SDS011;33272;51.922;7.730;2022-08-21T02:34:18;9.80;;;4.40;;
47529;SDS011;33272;51.922;7.730;2022-08-21T02:36:45;7.93;;;4.70;;
47529;SDS011;33272;51.922;7.730;2022-08-21T02:39:12;8.97;;;4.23;;
47529;SDS011;33272;51.922;7.730;2022-08-21T02:41:39;7.07;;;4.53;;
47529;SDS011;33272;51.922;7.730;2022-08-21T02:44:06;8.40;;;4.77;;
47529;SDS011;33272;51.922;7.730;2022-08-21T02:46:33;8.20;;;4.40;;
47529;SDS011;33272;51.922;7.730;2022-08-21T02:49:01;5.60;;;4.63;;
47529;SDS011;33272;51.922;7.730;2022-08-21T02:51:28;6.93;;;4.60;;
47529;SDS011;33272;51.922;7.730;2022-08-21T02:53:55;9.57;;;5.20;;
47529;SDS011;33272;51.922;7.730;2022-08-21T02:56:22;6.60;;;4.50;;
47529;SDS011;33272;51.922;7.730;2022-08-21T02:58:50;5.83;;;4.57;;
47529;SDS011;33272;51.922;7.730;2022-08-21T03:01:19;7.70;;;5.03;;
47529;SDS011;33272;51.922;7.730;2022-08-21T03:03:47;5.23;;;4.27;;
47529;SDS011;33272;51.922;7.730;2022-08-21T03:06:17;8.57;;;4.80;;
47529;SDS011;33272;51.922;7.730;2022-08-21T03:08:47;5.73;;;4.37;;
47529;SDS011;33272;51.922;7.730;2022-08-21T03:11:15;5.87;;;4.40;;
47529;SDS011;33272;51.922;7.730;2022-08-21T03:13:45;7.43;;;4.27;;
47529;SDS011;33272;51.922;7.730;2022-08-21T03:16:12;8.00;;;4.43;;
47529;SDS011;33272;51.922;7.730;2022-08-21T03:18:39;6.30;;;4.67;;
47529;SDS011;33272;51.922;7.730;2022-08-21T03:21:06;6.17;;;4.50;;
47529;SDS011;33272;51.922;7.730;2022-08-21T03:23:35;9.20;;;5.57;;
47529;SDS011;33272;51.922;7.730;2022-08-21T03:26:04;8.13;;;5.00;;
47529;SDS011;33272;51.922;7.730;2022-08-21T03:28:32;8.30;;;5.00;;
47529;SDS011;33272;51.922;7.730;2022-08-21T03:30:59;6.70;;;5.00;;
47529;SDS011;33272;51.922;7.730;2022-08-21T03:33:26;6.10;;;4.67;;
47529;SDS011;33272;51.922;7.730;2022-08-21T03:35:56;7.10;;;4.70;;
47529;SDS011;33272;51.922;7.730;2022-08-21T03:38:26;7.87;;;5.87;;
47529;SDS011;33272;51.922;7.730;2022-08-21T03:40:56;8.83;;;6.17;;
47529;SDS011;33272;51.922;7.730;2022-08-21T03:43:24;8.50;;;5.87;;
47529;SDS011;33272;51.922;7.730;2022-08-21T03:45:52;8.53;;;6.10;;
47529;SDS011;33272;51.922;7.730;2022-08-21T03:48:19;9.50;;;6.17;;
47529;SDS011;33272;51.922;7.730;2022-08-21T03:50:47;8.10;;;6.10;;
47529;SDS011;33272;51.922;7.730;2022-08-21T03:53:14;8.43;;;6.67;;
47529;SDS011;33272;51.922;7.730;2022-08-21T03:55:42;8.07;;;5.90;;
47529;SDS011;33272;51.922;7.730;2022-08-21T03:58:12;8.63;;;6.87;;
47529;SDS011;33272;51.922;7.730;2022-08-21T04:00:40;8.73;;;6.93;;
47529;SDS011;33272;51.922;7.730;2022-08-21T04:03:07;8.50;;;5.97;;
47529;SDS011;33272;51.922;7.730;2022-08-21T04:05:34;9.43;;;6.40;;
47529;SDS011;33272;51.922;7.730;2022-08-21T04:08:03;8.87;;;6.20;;
47529;SDS011;33272;51.922;7.730;2022-08-21T04:10:33;12.07;;;7.03;;
47529;SDS011;33272;51.922;7.730;2022-08-21T04:13:02;9.70;;;7.00;;
47529;SDS011;33272;51.922;7.730;2022-08-21T04:15:31;9.13;;;7.03;;
47529;SDS011;33272;51.922;7.730;2022-08-21T04:17:58;9.67;;;6.87;;
47529;SDS011;33272;51.922;7.730;2022-08-21T04:20:25;8.23;;;6.83;;
47529;SDS011;33272;51.922;7.730;2022-08-21T04:22:53;11.33;;;8.20;;
47529;SDS011;33272;51.922;7.730;2022-08-21T04:25:20;10.97;;;7.87;;
47529;SDS011;33272;51.922;7.730;2022-08-21T04:27:49;10.43;;;7.23;;
47529;SDS011;33272;51.922;7.730;2022-08-21T04:30:16;7.77;;;6.53;;
47529;SDS011;33272;51.922;7.730;2022-08-21T04:32:45;9.60;;;6.50;;
47529;SDS011;33272;51.922;7.730;2022-08-21T04:35:16;11.13;;;7.00;;
47529;SDS011;33272;51.922;7.730;2022-08-21T04:37:47;9.40;;;6.70;;
47529;SDS011;33272;51.922;7.730;2022-08-21T04:40:15;8.37;;;6.60;;
47529;SDS011;33272;51.922;7.730;2022-08-21T04:42:45;7.67;;;6.87;;
47529;SDS011;33272;51.922;7.730;2022-08-21T04:45:17;8.37;;;7.07;;
47529;SDS011;33272;51.922;7.730;2022-08-21T04:47:48;8.33;;;7.13;;
47529;SDS011;33272;51.922;7.730;2022-08-21T04:50:16;10.40;;;7.03;;
47529;SDS011;33272;51.922;7.730;2022-08-21T04:52:44;8.43;;;7.37;;
47529;SDS011;33272;51.922;7.730;2022-08-21T04:55:12;9.67;;;6.83;;
47529;SDS011;33272;51.922;7.730;2022-08-21T04:57:39;7.50;;;6.50;;
47529;SDS011;33272;51.922;7.730;2022-08-21T05:00:08;10.83;;;7.60;;
47529;SDS011;33272;51.922;7.730;2022-08-21T05:02:38;8.23;;;6.23;;
47529;SDS011;33272;51.922;7.730;2022-08-21T05:05:07;8.87;;;6.67;;
47529;SDS011;33272;51.922;7.730;2022-08-21T05:07:35;9.90;;;6.63;;
47529;SDS011;33272;51.922;7.730;2022-08-21T05:10:03;7.17;;;6.43;;
47529;SDS011;33272;51.922;7.730;2022-08-21T05:12:33;8.83;;;7.20;;
47529;SDS011;33272;51.922;7.730;2022-08-21T05:15:01;9.00;;;7.40;;
47529;SDS011;33272;51.922;7.730;2022-08-21T05:17:29;11.63;;;7.80;;
47529;SDS011;33272;51.922;7.730;2022-08-21T05:19:56;9.10;;;7.30;;
47529;SDS011;33272;51.922;7.730;2022-08-21T05:22:25;8.63;;;7.70;;
47529;SDS011;33272;51.922;7.730;2022-08-21T05:24:52;9.40;;;7.60;;
47529;SDS011;33272;51.922;7.730;2022-08-21T05:27:19;10.27;;;6.97;;
47529;SDS011;33272;51.922;7.730;2022-08-21T05:29:46;12.50;;;7.67;;
47529;SDS011;33272;51.922;7.730;2022-08-21T05:32:13;9.37;;;7.73;;
47529;SDS011;33272;51.922;7.730;2022-08-21T05:34:41;11.13;;;7.37;;
47529;SDS011;33272;51.922;7.730;2022-08-21T05:37:10;9.10;;;7.13;;
47529;SDS011;33272;51.922;7.730;2022-08-21T05:39:39;10.37;;;7.07;;
47529;SDS011;33272;51.922;7.730;2022-08-21T05:42:06;10.43;;;6.97;;
47529;SDS011;33272;51.922;7.730;2022-08-21T05:44:34;8.10;;;6.40;;
47529;SDS011;33272;51.922;7.730;2022-08-21T05:47:04;10.47;;;7.27;;
47529;SDS011;33272;51.922;7.730;2022-08-21T05:49:33;11.53;;;6.70;;
47529;SDS011;33272;51.922;7.730;2022-08-21T05:52:01;10.03;;;6.43;;
47529;SDS011;33272;51.922;7.730;2022-08-21T05:54:30;7.90;;;6.37;;
47529;SDS011;33272;51.922;7.730;2022-08-21T05:56:59;8.67;;;6.37;;
47529;SDS011;33272;51.922;7.730;2022-08-21T05:59:26;8.00;;;6.50;;
47529;SDS011;33272;51.922;7.730;2022-08-21T06:01:53;10.07;;;6.40;;
47529;SDS011;33272;51.922;7.730;2022-08-21T06:04:20;11.00;;;6.17;;
47529;SDS011;33272;51.922;7.730;2022-08-21T06:06:47;9.30;;;5.70;;
47529;SDS011;33272;51.922;7.730;2022-08-21T06:09:14;10.00;;;6.00;;
47529;SDS011;33272;51.922;7.730;2022-08-21T06:11:41;7.63;;;5.90;;
47529;SDS011;33272;51.922;7.730;2022-08-21T06:14:11;10.57;;;6.00;;
47529;SDS011;33272;51.922;7.730;2022-08-21T06:16:41;7.70;;;6.00;;
47529;SDS011;33272;51.922;7.730;2022-08-21T06:19:08;9.87;;;6.00;;
47529;SDS011;33272;51.922;7.730;2022-08-21T06:21:35;7.73;;;5.47;;
47529;SDS011;33272;51.922;7.730;2022-08-21T06:24:02;9.60;;;6.07;;
47529;SDS011;33272;51.922;7.730;2022-08-21T06:26:32;9.87;;;5.83;;
47529;SDS011;33272;51.922;7.730;2022-08-21T06:28:59;9.07;;;5.77;;
47529;SDS011;33272;51.922;7.730;2022-08-21T06:31:28;10.50;;;6.00;;
47529;SDS011;33272;51.922;7.730;2022-08-21T06:33:55;9.13;;;5.80;;
47529;SDS011;33272;51.922;7.730;2022-08-21T06:36:22;9.40;;;5.73;;
47529;SDS011;33272;51.922;7.730;2022-08-21T06:38:49;8.30;;;5.53;;
47529;SDS011;33272;51.922;7.730;2022-08-21T06:41:16;7.47;;;5.53;;
47529;SDS011;33272;51.922;7.730;2022-08-21T06:43:44;9.07;;;6.07;;
47529;SDS011;33272;51.922;7.730;2022-08-21T06:46:11;9.43;;;6.07;;
47529;SDS011;33272;51.922;7.730;2022-08-21T06:48:39;9.60;;;6.07;;
47529;SDS011;33272;51.922;7.730;2022-08-21T06:51:06;8.27;;;5.70;;
47529;SDS011;33272;51.922;7.730;2022-08-21T06:53:33;9.17;;;6.10;;
47529;SDS011;33272;51.922;7.730;2022-08-21T06:56:01;9.17;;;6.33;;
47529;SDS011;33272;51.922;7.730;2022-08-21T06:58:28;7.87;;;5.87;;
47529;SDS011;33272;51.922;7.730;2022-08-21T07:00:56;10.13;;;6.30;;
47529;SDS011;33272;51.922;7.730;2022-08-21T07:03:24;7.43;;;6.00;;
47529;SDS011;33272;51.922;7.730;2022-08-21T07:05:55;9.13;;;5.83;;
47529;SDS011;33272;51.922;7.730;2022-08-21T07:08:24;9.73;;;6.30;;
47529;SDS011;33272;51.922;7.730;2022-08-21T07:10:52;8.57;;;5.87;;
47529;SDS011;33272;51.922;7.730;2022-08-21T07:13:22;10.73;;;5.87;;
47529;SDS011;33272;51.922;7.730;2022-08-21T07:15:49;11.40;;;6.50;;
47529;SDS011;33272;51.922;7.730;2022-08-21T07:18:16;7.97;;;5.77;;
47529;SDS011;33272;51.922;7.730;2022-08-21T07:20:43;7.10;;;5.43;;
47529;SDS011;33272;51.922;7.730;2022-08-21T07:25:58;8.57;;;6.43;;
47529;SDS011;33272;51.922;7.730;2022-08-21T07:28:26;9.23;;;5.83;;
47529;SDS011;33272;51.922;7.730;2022-08-21T07:30:55;7.50;;;5.77;;
47529;SDS011;33272;51.922;7.730;2022-08-21T07:33:24;9.17;;;4.97;;
47529;SDS011;33272;51.922;7.730;2022-08-21T07:35:53;11.17;;;6.17;;
47529;SDS011;33272;51.922;7.730;2022-08-21T07:38:21;10.97;;;5.33;;
47529;SDS011;33272;51.922;7.730;2022-08-21T07:40:50;8.77;;;5.00;;
47529;SDS011;33272;51.922;7.730;2022-08-21T07:43:20;8.83;;;5.23;;
47529;SDS011;33272;51.922;7.730;2022-08-21T07:45:47;7.70;;;5.23;;
47529;SDS011;33272;51.922;7.730;2022-08-21T07:48:15;13.80;;;5.13;;
47529;SDS011;33272;51.922;7.730;2022-08-21T07:50:42;8.67;;;5.00;;
47529;SDS011;33272;51.922;7.730;2022-08-21T07:53:10;7.83;;;4.70;;
47529;SDS011;33272;51.922;7.730;2022-08-21T07:55:37;8.00;;;4.73;;
47529;SDS011;33272;51.922;7.730;2022-08-21T07:58:06;10.53;;;5.13;;
47529;SDS011;33272;51.922;7.730;2022-08-21T08:00:33;8.27;;;4.63;;
47529;SDS011;33272;51.922;7.730;2022-08-21T08:03:00;7.67;;;4.87;;
47529;SDS011;33272;51.922;7.730;2022-08-21T08:05:28;6.80;;;4.63;;
47529;SDS011;33272;51.922;7.730;2022-08-21T08:07:57;8.80;;;4.53;;
47529;SDS011;33272;51.922;7.730;2022-08-21T08:10:25;7.30;;;4.93;;
47529;SDS011;33272;51.922;7.730;2022-08-21T08:12:53;7.47;;;4.93;;
47529;SDS011;33272;51.922;7.730;2022-08-21T08:15:22;9.40;;;4.97;;
47529;SDS011;33272;51.922;7.730;2022-08-21T08:17:52;8.73;;;4.70;;
47529;SDS011;33272;51.922;7.730;2022-08-21T08:20:21;9.00;;;5.80;;
47529;SDS011;33272;51.922;7.730;2022-08-21T08:22:50;15.70;;;6.10;;
47529;SDS011;33272;51.922;7.730;2022-08-21T08:25:17;8.70;;;4.93;;
47529;SDS011;33272;51.922;7.730;2022-08-21T08:27:47;8.90;;;5.10;;
47529;SDS011;33272;51.922;7.730;2022-08-21T08:30:15;6.00;;;4.83;;
47529;SDS011;33272;51.922;7.730;2022-08-21T08:32:46;11.30;;;5.90;;
47529;SDS011;33272;51.922;7.730;2022-08-21T08:35:14;8.77;;;5.70;;
47529;SDS011;33272;51.922;7.730;2022-08-21T08:37:42;8.60;;;4.90;;
47529;SDS011;33272;51.922;7.730;2022-08-21T08:40:11;11.87;;;6.33;;
47529;SDS011;33272;51.922;7.730;2022-08-21T08:42:46;10.00;;;5.87;;
47529;SDS011;33272;51.922;7.730;2022-08-21T08:45:16;9.40;;;6.63;;
47529;SDS011;33272;51.922;7.730;2022-08-21T08:47:49;8.40;;;6.43;;
47529;SDS011;33272;51.922;7.730;2022-08-21T08:50:24;10.90;;;6.57;;
47529;SDS011;33272;51.922;7.730;2022-08-21T08:52:57;9.30;;;6.17;;
47529;SDS011;33272;51.922;7.730;2022-08-21T08:55:32;9.97;;;6.53;;
47529;SDS011;33272;51.922;7.730;2022-08-21T08:58:02;8.20;;;6.50;;
47529;SDS011;33272;51.922;7.730;2022-08-21T09:00:30;10.47;;;6.17;;
47529;SDS011;33272;51.922;7.730;2022-08-21T09:03:01;8.53;;;5.80;;
47529;SDS011;33272;51.922;7.730;2022-08-21T09:05:30;10.87;;;5.57;;
47529;SDS011;33272;51.922;7.730;2022-08-21T09:08:15;12.97;;;6.20;;
47529;SDS011;33272;51.922;7.730;2022-08-21T09:11:00;8.93;;;5.63;;
47529;SDS011;33272;51.922;7.730;2022-08-21T09:13:36;8.73;;;5.57;;
47529;SDS011;33272;51.922;7.730;2022-08-21T09:16:18;7.97;;;5.30;;
47529;SDS011;33272;51.922;7.730;2022-08-21T09:18:58;9.53;;;5.13;;
47529;SDS011;33272;51.922;7.730;2022-08-21T09:21:38;7.10;;;5.53;;
47529;SDS011;33272;51.922;7.730;2022-08-21T09:24:18;10.60;;;5.13;;
47529;SDS011;33272;51.922;7.730;2022-08-21T09:26:57;8.83;;;4.83;;
47529;SDS011;33272;51.922;7.730;2022-08-21T09:29:34;6.97;;;4.90;;
47529;SDS011;33272;51.922;7.730;2022-08-21T09:32:04;10.63;;;5.33;;
47529;SDS011;33272;51.922;7.730;2022-08-21T09:34:54;6.37;;;4.10;;
47529;SDS011;33272;51.922;7.730;2022-08-21T09:37:23;9.03;;;4.73;;
47529;SDS011;33272;51.922;7.730;2022-08-21T09:39:54;9.80;;;5.00;;
47529;SDS011;33272;51.922;7.730;2022-08-21T09:42:23;6.73;;;2.73;;
47529;SDS011;33272;51.922;7.730;2022-08-21T09:45:07;5.17;;;2.97;;
47529;SDS011;33272;51.922;7.730;2022-08-21T09:47:39;5.77;;;3.20;;
47529;SDS011;33272;51.922;7.730;2022-08-21T09:50:08;5.77;;;3.10;;
47529;SDS011;33272;51.922;7.730;2022-08-21T09:52:47;6.20;;;2.97;;
47529;SDS011;33272;51.922;7.730;2022-08-21T09:55:18;6.07;;;3.17;;
47529;SDS011;33272;51.922;7.730;2022-08-21T09:58:12;5.40;;;2.70;;
47529;SDS011;33272;51.922;7.730;2022-08-21T10:00:40;5.87;;;2.93;;
47529;SDS011;33272;51.922;7.730;2022-08-21T10:03:08;5.97;;;3.03;;
47529;SDS011;33272;51.922;7.730;2022-08-21T10:05:40;5.07;;;3.33;;
47529;SDS011;33272;51.922;7.730;2022-08-21T10:08:19;4.80;;;3.00;;
47529;SDS011;33272;51.922;7.730;2022-08-21T10:10:50;5.23;;;3.00;;
47529;SDS011;33272;51.922;7.730;2022-08-21T10:13:23;4.33;;;2.23;;
47529;SDS011;33272;51.922;7.730;2022-08-21T10:16:03;5.63;;;2.60;;
47529;SDS011;33272;51.922;7.730;2022-08-21T10:18:49;5.20;;;2.57;;
47529;SDS011;33272;51.922;7.730;2022-08-21T10:21:35;6.77;;;3.27;;
47529;SDS011;33272;51.922;7.730;2022-08-21T10:24:14;4.90;;;2.40;;
47529;SDS011;33272;51.922;7.730;2022-08-21T10:26:54;4.90;;;2.30;;
47529;SDS011;33272;51.922;7.730;2022-08-21T10:29:33;5.43;;;2.60;;
47529;SDS011;33272;51.922;7.730;2022-08-21T10:32:15;4.60;;;2.57;;
47529;SDS011;33272;51.922;7.730;2022-08-21T10:35:02;7.43;;;2.77;;
47529;SDS011;33272;51.922;7.730;2022-08-21T10:37:45;7.43;;;3.20;;
47529;SDS011;33272;51.922;7.730;2022-08-21T10:40:27;6.40;;;2.70;;
47529;SDS011;33272;51.922;7.730;2022-08-21T10:43:03;6.10;;;2.47;;
47529;SDS011;33272;51.922;7.730;2022-08-21T10:45:45;3.90;;;2.43;;
47529;SDS011;33272;51.922;7.730;2022-08-21T10:48:25;5.17;;;2.23;;
47529;SDS011;33272;51.922;7.730;2022-08-21T10:51:01;4.00;;;2.20;;
47529;SDS011;33272;51.922;7.730;2022-08-21T10:53:47;6.70;;;3.17;;
47529;SDS011;33272;51.922;7.730;2022-08-21T10:56:26;8.37;;;2.53;;
47529;SDS011;33272;51.922;7.730;2022-08-21T10:59:02;5.30;;;2.93;;
47529;SDS011;33272;51.922;7.730;2022-08-21T11:01:46;5.07;;;2.80;;
47529;SDS011;33272;51.922;7.730;2022-08-21T11:04:23;4.30;;;2.60;;
47529;SDS011;33272;51.922;7.730;2022-08-21T11:06:58;5.73;;;2.37;;
47529;SDS011;33272;51.922;7.730;2022-08-21T11:09:33;6.07;;;2.90;;
47529;SDS011;33272;51.922;7.730;2022-08-21T11:12:03;4.13;;;2.50;;
47529;SDS011;33272;51.922;7.730;2022-08-21T11:14:46;4.03;;;2.30;;
47529;SDS011;33272;51.922;7.730;2022-08-21T11:17:22;4.73;;;2.57;;
47529;SDS011;33272;51.922;7.730;2022-08-21T11:19:59;4.80;;;2.50;;
47529;SDS011;33272;51.922;7.730;2022-08-21T11:22:36;3.60;;;2.27;;
47529;SDS011;33272;51.922;7.730;2022-08-21T11:25:09;3.83;;;1.87;;
47529;SDS011;33272;51.922;7.730;2022-08-21T11:27:46;4.37;;;2.47;;
47529;SDS011;33272;51.922;7.730;2022-08-21T11:30:20;6.43;;;2.30;;
47529;SDS011;33272;51.922;7.730;2022-08-21T11:32:56;7.00;;;2.50;;
47529;SDS011;33272;51.922;7.730;2022-08-21T11:35:38;6.40;;;2.37;;
47529;SDS011;33272;51.922;7.730;2022-08-21T11:38:18;6.07;;;2.63;;
47529;SDS011;33272;51.922;7.730;2022-08-21T11:41:16;5.27;;;2.40;;
47529;SDS011;33272;51.922;7.730;2022-08-21T11:43:53;3.03;;;1.90;;
47529;SDS011;33272;51.922;7.730;2022-08-21T11:46:35;3.43;;;1.80;;
47529;SDS011;33272;51.922;7.730;2022-08-21T11:49:18;2.73;;;1.63;;
47529;SDS011;33272;51.922;7.730;2022-08-21T11:52:10;3.03;;;1.53;;
47529;SDS011;33272;51.922;7.730;2022-08-21T11:54:47;2.97;;;1.60;;
47529;SDS011;33272;51.922;7.730;2022-08-21T11:57:24;4.27;;;1.30;;
47529;SDS011;33272;51.922;7.730;2022-08-21T11:59:57;2.57;;;1.60;;
47529;SDS011;33272;51.922;7.730;2022-08-21T12:02:33;2.87;;;1.57;;
47529;SDS011;33272;51.922;7.730;2022-08-21T12:05:05;3.47;;;1.60;;
47529;SDS011;33272;51.922;7.730;2022-08-21T12:07:37;3.13;;;1.87;;
47529;SDS011;33272;51.922;7.730;2022-08-21T12:10:08;2.80;;;1.20;;
47529;SDS011;33272;51.922;7.730;2022-08-21T12:12:39;2.00;;;1.37;;
47529;SDS011;33272;51.922;7.730;2022-08-21T12:15:17;2.43;;;1.33;;
47529;SDS011;33272;51.922;7.730;2022-08-21T12:17:55;3.83;;;1.30;;
47529;SDS011;33272;51.922;7.730;2022-08-21T12:20:34;3.37;;;2.00;;
47529;SDS011;33272;51.922;7.730;2022-08-21T12:23:24;2.67;;;1.50;;
47529;SDS011;33272;51.922;7.730;2022-08-21T12:26:17;3.37;;;1.37;;
47529;SDS011;33272;51.922;7.730;2022-08-21T12:29:03;3.67;;;1.53;;
47529;SDS011;33272;51.922;7.730;2022-08-21T12:31:48;4.27;;;1.50;;
47529;SDS011;33272;51.922;7.730;2022-08-21T12:34:21;3.03;;;1.30;;
47529;SDS011;33272;51.922;7.730;2022-08-21T12:36:53;2.70;;;1.30;;
47529;SDS011;33272;51.922;7.730;2022-08-21T12:39:25;2.60;;;1.40;;
47529;SDS011;33272;51.922;7.730;2022-08-21T12:41:57;3.37;;;1.70;;
47529;SDS011;33272;51.922;7.730;2022-08-21T12:44:34;1.87;;;1.20;;
47529;SDS011;33272;51.922;7.730;2022-08-21T12:47:12;3.47;;;1.40;;
47529;SDS011;33272;51.922;7.730;2022-08-21T12:49:50;3.10;;;1.50;;
47529;SDS011;33272;51.922;7.730;2022-08-21T12:52:24;2.57;;;1.30;;
47529;SDS011;33272;51.922;7.730;2022-08-21T12:54:58;4.53;;;1.40;;
47529;SDS011;33272;51.922;7.730;2022-08-21T12:57:27;2.20;;;1.30;;
47529;SDS011;33272;51.922;7.730;2022-08-21T12:59:58;2.77;;;1.43;;
47529;SDS011;33272;51.922;7.730;2022-08-21T13:02:28;5.63;;;1.50;;
47529;SDS011;33272;51.922;7.730;2022-08-21T13:05:01;2.90;;;1.17;;
47529;SDS011;33272;51.922;7.730;2022-08-21T13:07:32;2.20;;;1.20;;
47529;SDS011;33272;51.922;7.730;2022-08-21T13:10:05;2.77;;;1.63;;
47529;SDS011;33272;51.922;7.730;2022-08-21T13:12:44;2.33;;;1.30;;
47529;SDS011;33272;51.922;7.730;2022-08-21T13:15:13;4.13;;;1.87;;
47529;SDS011;33272;51.922;7.730;2022-08-21T13:17:48;3.83;;;1.37;;
47529;SDS011;33272;51.922;7.730;2022-08-21T13:20:19;2.23;;;1.10;;
47529;SDS011;33272;51.922;7.730;2022-08-21T13:22:49;2.80;;;1.17;;
47529;SDS011;33272;51.922;7.730;2022-08-21T13:25:18;1.90;;;1.23;;
47529;SDS011;33272;51.922;7.730;2022-08-21T13:28:01;4.70;;;1.43;;
47529;SDS011;33272;51.922;7.730;2022-08-21T13:30:37;3.47;;;1.60;;
47529;SDS011;33272;51.922;7.730;2022-08-21T13:33:08;2.53;;;1.20;;
47529;SDS011;33272;51.922;7.730;2022-08-21T13:35:45;3.30;;;1.20;;
47529;SDS011;33272;51.922;7.730;2022-08-21T13:38:15;2.53;;;1.40;;
47529;SDS011;33272;51.922;7.730;2022-08-21T13:40:45;3.00;;;1.40;;
47529;SDS011;33272;51.922;7.730;2022-08-21T13:43:17;3.40;;;1.33;;
47529;SDS011;33272;51.922;7.730;2022-08-21T13:45:51;5.70;;;1.40;;
47529;SDS011;33272;51.922;7.730;2022-08-21T13:48:20;1.80;;;1.40;;
47529;SDS011;33272;51.922;7.730;2022-08-21T13:50:52;2.53;;;1.27;;
47529;SDS011;33272;51.922;7.730;2022-08-21T13:53:21;2.27;;;1.33;;
47529;SDS011;33272;51.922;7.730;2022-08-21T13:55:54;1.60;;;1.20;;
47529;SDS011;33272;51.922;7.730;2022-08-21T13:58:25;3.33;;;1.57;;
47529;SDS011;33272;51.922;7.730;2022-08-21T14:00:55;2.37;;;1.20;;
47529;SDS011;33272;51.922;7.730;2022-08-21T14:03:31;3.37;;;1.20;;
47529;SDS011;33272;51.922;7.730;2022-08-21T14:06:02;4.13;;;1.90;;
47529;SDS011;33272;51.922;7.730;2022-08-21T14:08:37;2.10;;;1.10;;
47529;SDS011;33272;51.922;7.730;2022-08-21T14:11:09;2.63;;;1.33;;
47529;SDS011;33272;51.922;7.730;2022-08-21T14:13:39;3.87;;;1.67;;
47529;SDS011;33272;51.922;7.730;2022-08-21T14:16:12;2.93;;;1.60;;
47529;SDS011;33272;51.922;7.730;2022-08-21T14:18:50;5.10;;;1.67;;
47529;SDS011;33272;51.922;7.730;2022-08-21T14:21:34;2.63;;;1.33;;
47529;SDS011;33272;51.922;7.730;2022-08-21T14:24:04;2.30;;;1.47;;
47529;SDS011;33272;51.922;7.730;2022-08-21T14:26:36;3.57;;;1.70;;
47529;SDS011;33272;51.922;7.730;2022-08-21T14:29:15;3.77;;;1.47;;
47529;SDS011;33272;51.922;7.730;2022-08-21T14:31:50;2.80;;;1.50;;
47529;SDS011;33272;51.922;7.730;2022-08-21T14:34:19;2.13;;;1.40;;
47529;SDS011;33272;51.922;7.730;2022-08-21T14:36:48;2.90;;;1.37;;
47529;SDS011;33272;51.922;7.730;2022-08-21T14:39:16;2.13;;;1.03;;
47529;SDS011;33272;51.922;7.730;2022-08-21T14:41:43;2.20;;;1.40;;
47529;SDS011;33272;51.922;7.730;2022-08-21T14:44:13;2.70;;;1.40;;
47529;SDS011;33272;51.922;7.730;2022-08-21T14:46:41;2.63;;;1.30;;
47529;SDS011;33272;51.922;7.730;2022-08-21T14:49:10;2.23;;;1.20;;
47529;SDS011;33272;51.922;7.730;2022-08-21T14:51:37;1.70;;;1.10;;
47529;SDS011;33272;51.922;7.730;2022-08-21T14:54:05;2.50;;;1.33;;
47529;SDS011;33272;51.922;7.730;2022-08-21T14:56:32;2.63;;;1.10;;
47529;SDS011;33272;51.922;7.730;2022-08-21T14:59:02;2.30;;;1.30;;
47529;SDS011;33272;51.922;7.730;2022-08-21T15:01:34;4.03;;;1.50;;
47529;SDS011;33272;51.922;7.730;2022-08-21T15:04:03;2.20;;;1.30;;
47529;SDS011;33272;51.922;7.730;2022-08-21T15:06:32;3.53;;;1.60;;
47529;SDS011;33272;51.922;7.730;2022-08-21T15:08:59;4.63;;;1.23;;
47529;SDS011;33272;51.922;7.730;2022-08-21T15:11:27;4.37;;;1.60;;